VTPH/HHQ METAR and TAF weather

Enter ICAO airport designator
Station Type Date Time Source
VTPH METAR 2020/04/05 23:00 UTC NOAA

VTPH 052300Z VRB01KT 8000 FEW030 27/23 Q1010 NOSIG


Station Type Date Time Source
VTPH Decoded METAR 2020/04/05 23:00 UTC NOAA

Hua Hin, Thailand (VTPH) 12-35N 099-57E 6M
Apr 05, 2020 - 07:00 PM EDT / 2020.04.05 2300 UTC
Wind: Variable at 1 MPH (1 KT):0
Visibility: 4 mile(s):0
Sky conditions: mostly clear
Temperature: 80 F (27 C)
Dew Point: 73 F (23 C)
Relative Humidity: 78%
Pressure (altimeter): 29.83 in. Hg (1010 hPa)
ob: VTPH 052300Z VRB01KT 8000 FEW030 27/23 Q1010 NOSIG
cycle: 23

Station Type Date Time Source
VTPH TAF 2020/04/05 18:00 UTC NOAA

TAF VTPH 051700Z 0518/0618 22005KT 9999 FEW030
BECMG 0601/0603 15010KT
BECMG 0614/0616 22005KT

Example: see airport list